createdAt,value
2019-03-23T00:02:00.273Z,11.33
2019-03-23T00:04:26.327Z,11.13
2019-03-23T00:06:52.557Z,11.57
2019-03-23T00:09:18.684Z,11.27
2019-03-23T00:11:44.764Z,10.93
2019-03-23T00:14:10.718Z,11.60
2019-03-23T00:16:36.740Z,12.13
2019-03-23T00:19:02.934Z,12.20
2019-03-23T00:21:28.823Z,12.10
2019-03-23T00:23:55.289Z,11.37
2019-03-23T00:26:21.363Z,12.53
2019-03-23T00:28:47.385Z,11.57
2019-03-23T00:31:14.270Z,12.47
2019-03-23T00:33:40.395Z,12.90
2019-03-23T00:36:06.512Z,11.67
2019-03-23T00:38:32.634Z,12.87
2019-03-23T00:40:58.731Z,12.33
2019-03-23T00:43:24.515Z,11.40
2019-03-23T00:45:50.584Z,11.97
2019-03-23T00:48:16.750Z,11.53
2019-03-23T00:50:42.548Z,12.07
2019-03-23T00:53:08.609Z,10.43
2019-03-23T00:55:34.742Z,10.13
2019-03-23T00:58:00.712Z,10.97
2019-03-23T01:00:27.104Z,11.00
2019-03-23T01:02:53.671Z,11.33
2019-03-23T01:05:19.829Z,11.03
2019-03-23T01:07:46.058Z,12.17
2019-03-23T01:10:12.615Z,10.83
2019-03-23T01:12:38.903Z,11.53
2019-03-23T01:15:07.520Z,10.93
2019-03-23T01:17:33.620Z,10.80
2019-03-23T01:19:59.548Z,10.80
2019-03-23T01:22:25.468Z,11.27
2019-03-23T01:24:51.367Z,11.47
2019-03-23T01:27:17.286Z,11.30
2019-03-23T01:29:43.211Z,10.53
2019-03-23T01:32:09.658Z,11.30
2019-03-23T01:34:35.719Z,11.87
2019-03-23T01:37:03.071Z,11.03
2019-03-23T01:39:29.220Z,10.77
2019-03-23T01:41:55.365Z,11.20
2019-03-23T01:44:21.493Z,10.93
2019-03-23T01:46:47.851Z,11.63
2019-03-23T01:49:13.681Z,11.23
2019-03-23T01:51:39.689Z,10.77
2019-03-23T01:54:06.012Z,11.20
2019-03-23T01:56:31.868Z,10.70
2019-03-23T01:58:57.874Z,10.57
2019-03-23T02:01:24.417Z,11.40
2019-03-23T02:03:50.295Z,11.23
2019-03-23T02:06:16.350Z,11.73
2019-03-23T02:08:42.470Z,10.70
2019-03-23T02:11:08.351Z,11.23
2019-03-23T02:13:34.456Z,11.43
2019-03-23T02:16:00.528Z,11.27
2019-03-23T02:18:26.754Z,12.03
2019-03-23T02:20:52.676Z,11.77
2019-03-23T02:23:18.728Z,11.07
2019-03-23T02:25:45.136Z,11.40
2019-03-23T02:28:11.252Z,10.93
2019-03-23T02:30:37.309Z,10.80
2019-03-23T02:33:03.176Z,10.50
2019-03-23T02:35:29.228Z,11.67
2019-03-23T02:37:55.055Z,12.40
2019-03-23T02:40:21.267Z,11.80
2019-03-23T02:42:47.300Z,11.70
2019-03-23T02:45:13.855Z,11.97
2019-03-23T02:47:39.851Z,11.43
2019-03-23T02:50:07.949Z,11.70
2019-03-23T02:52:34.239Z,11.67
2019-03-23T02:55:00.524Z,11.20
2019-03-23T02:57:26.705Z,12.13
2019-03-23T02:59:52.848Z,11.23
2019-03-23T03:02:19.112Z,10.70
2019-03-23T03:04:45.633Z,11.57
2019-03-23T03:07:11.828Z,10.97
2019-03-23T03:09:38.088Z,10.90
2019-03-23T03:12:04.432Z,11.10
2019-03-23T03:14:30.316Z,11.23
2019-03-23T03:16:56.369Z,11.13
2019-03-23T03:19:22.457Z,10.73
2019-03-23T03:21:48.462Z,11.57
2019-03-23T03:24:14.603Z,11.57
2019-03-23T03:26:40.413Z,10.67
2019-03-23T03:29:06.458Z,11.33
2019-03-23T03:31:32.359Z,11.60
2019-03-23T03:33:58.445Z,10.33
2019-03-23T03:36:24.534Z,11.90
2019-03-23T03:38:50.482Z,11.33
2019-03-23T03:41:16.624Z,11.40
2019-03-23T03:43:42.672Z,11.30
2019-03-23T03:46:08.613Z,11.30
2019-03-23T03:48:34.738Z,11.10
2019-03-23T03:51:00.814Z,11.37
2019-03-23T03:53:26.982Z,10.67
2019-03-23T03:55:53.027Z,11.10
2019-03-23T03:58:18.833Z,11.07
2019-03-23T04:00:44.993Z,11.80
2019-03-23T04:03:11.153Z,11.33
2019-03-23T04:05:37.017Z,11.50
2019-03-23T04:08:10.866Z,11.23
2019-03-23T04:10:31.154Z,11.77
2019-03-23T04:12:57.757Z,12.17
2019-03-23T04:15:23.831Z,11.30
2019-03-23T04:17:49.898Z,10.37
2019-03-23T04:20:15.724Z,11.50
2019-03-23T04:22:41.775Z,10.80
2019-03-23T04:25:09.032Z,11.43
2019-03-23T04:27:35.098Z,11.47
2019-03-23T04:30:04.291Z,11.27
2019-03-23T04:32:30.339Z,12.00
2019-03-23T04:34:56.402Z,11.13
2019-03-23T04:37:22.627Z,11.93
2019-03-23T04:39:48.684Z,12.13
2019-03-23T04:42:14.619Z,11.50
2019-03-23T04:44:40.694Z,12.73
2019-03-23T04:47:06.778Z,12.90
2019-03-23T04:49:32.637Z,12.40
2019-03-23T04:51:58.464Z,11.70
2019-03-23T04:54:24.790Z,11.50
2019-03-23T04:56:50.624Z,11.93
2019-03-23T04:59:16.712Z,11.50
2019-03-23T05:01:42.654Z,12.10
2019-03-23T05:04:08.820Z,12.27
2019-03-23T05:06:34.902Z,12.80
2019-03-23T05:09:01.052Z,12.30
2019-03-23T05:11:27.156Z,12.73
2019-03-23T05:13:53.247Z,12.60
2019-03-23T05:16:19.168Z,12.60
2019-03-23T05:18:45.269Z,13.00
2019-03-23T05:21:11.596Z,12.93
2019-03-23T05:23:38.406Z,12.60
2019-03-23T05:26:04.575Z,11.67
2019-03-23T05:28:31.002Z,12.40
2019-03-23T05:30:57.444Z,11.03
2019-03-23T05:33:23.664Z,12.50
2019-03-23T05:35:49.754Z,13.03
2019-03-23T05:38:15.984Z,13.37
2019-03-23T05:40:41.815Z,13.60
2019-03-23T05:43:07.707Z,12.93
2019-03-23T05:45:33.769Z,13.97
2019-03-23T05:47:59.864Z,13.20
2019-03-23T05:50:25.707Z,12.90
2019-03-23T05:52:51.890Z,12.87
2019-03-23T05:55:17.860Z,13.47
2019-03-23T05:57:43.754Z,12.70
2019-03-23T06:00:11.834Z,12.67
2019-03-23T06:02:37.982Z,13.23
2019-03-23T06:05:05.403Z,13.93
2019-03-23T06:07:31.512Z,13.60
2019-03-23T06:09:57.656Z,14.30
2019-03-23T06:12:24.011Z,14.77
2019-03-23T06:14:50.119Z,13.73
2019-03-23T06:17:16.256Z,13.63
2019-03-23T06:19:42.306Z,14.50
2019-03-23T06:22:08.190Z,15.13
2019-03-23T06:24:34.518Z,13.20
2019-03-23T06:27:00.582Z,13.97
2019-03-23T06:29:26.761Z,13.67
2019-03-23T06:31:52.884Z,14.57
2019-03-23T06:34:19.256Z,15.53
2019-03-23T06:36:45.456Z,17.23
2019-03-23T06:39:11.908Z,17.13
2019-03-23T06:41:37.985Z,16.87
2019-03-23T06:44:04.011Z,17.93
2019-03-23T06:46:30.152Z,17.87
2019-03-23T06:48:56.633Z,17.93
2019-03-23T06:51:22.748Z,19.20
2019-03-23T06:53:48.854Z,19.93
2019-03-23T06:56:15.294Z,18.97
2019-03-23T06:58:41.383Z,21.03
2019-03-23T07:01:07.472Z,20.40
2019-03-23T07:03:33.560Z,19.00
2019-03-23T07:06:00.009Z,20.23
2019-03-23T07:08:31.792Z,19.30
2019-03-23T07:10:54.209Z,19.37
2019-03-23T07:13:20.404Z,20.47
2019-03-23T07:15:46.540Z,19.47
2019-03-23T07:18:12.647Z,19.43
2019-03-23T07:20:38.803Z,18.43
2019-03-23T07:23:05.186Z,20.43
2019-03-23T07:25:31.295Z,19.13
2019-03-23T07:27:57.582Z,19.90
2019-03-23T07:30:24.015Z,18.87
2019-03-23T07:32:50.188Z,19.10
2019-03-23T07:35:16.995Z,20.03
2019-03-23T07:37:43.443Z,18.50
2019-03-23T07:40:10.892Z,18.40
2019-03-23T07:42:37.064Z,20.37
2019-03-23T07:45:05.956Z,19.17
2019-03-23T07:47:32.010Z,18.77
2019-03-23T07:49:58.076Z,20.03
2019-03-23T07:52:24.580Z,19.83
2019-03-23T07:54:50.730Z,20.27
2019-03-23T07:57:16.892Z,20.93
2019-03-23T07:59:43.285Z,20.20
2019-03-23T08:02:09.432Z,20.13
2019-03-23T08:04:35.602Z,18.87
2019-03-23T08:07:01.937Z,19.77
2019-03-23T08:09:37.366Z,20.47
2019-03-23T08:11:55.842Z,21.00
2019-03-23T08:14:21.858Z,20.80
2019-03-23T08:16:48.119Z,21.97
2019-03-23T08:19:14.232Z,21.23
2019-03-23T08:21:40.248Z,21.00
2019-03-23T08:24:06.414Z,21.80
2019-03-23T08:26:32.534Z,22.43
2019-03-23T08:28:59.033Z,23.27
2019-03-23T08:31:25.182Z,23.83
2019-03-23T08:33:52.181Z,23.80
2019-03-23T08:36:18.393Z,24.37
2019-03-23T08:38:44.563Z,27.17
2019-03-23T08:41:11.100Z,25.47
2019-03-23T08:43:37.235Z,26.63
2019-03-23T08:46:03.403Z,26.93
2019-03-23T08:48:29.527Z,26.33
2019-03-23T08:50:55.655Z,26.73
2019-03-23T08:53:22.112Z,27.22
2019-03-23T08:55:48.455Z,28.45
2019-03-23T08:58:14.636Z,30.12
2019-03-23T09:00:40.759Z,29.72
2019-03-23T09:03:06.878Z,27.40
2019-03-23T09:05:33.387Z,27.32
2019-03-23T09:07:59.488Z,28.30
2019-03-23T09:10:25.655Z,28.07
2019-03-23T09:12:51.865Z,30.08
2019-03-23T09:15:17.724Z,28.98
2019-03-23T09:17:43.947Z,30.55
2019-03-23T09:20:10.656Z,31.90
2019-03-23T09:22:36.931Z,30.82
2019-03-23T09:25:04.520Z,29.52
2019-03-23T09:27:30.573Z,31.33
2019-03-23T09:29:56.684Z,31.30
2019-03-23T09:32:22.493Z,31.15
2019-03-23T09:34:49.118Z,30.50
2019-03-23T09:37:15.252Z,32.53
2019-03-23T09:39:41.399Z,44.73
2019-03-23T09:42:09.608Z,44.30
2019-03-23T09:44:36.210Z,44.23
2019-03-23T09:47:05.449Z,44.60
2019-03-23T09:49:31.610Z,43.83
2019-03-23T09:51:58.152Z,45.35
2019-03-23T09:54:26.896Z,44.90
2019-03-23T09:56:52.700Z,47.48
2019-03-23T09:59:18.807Z,44.30
2019-03-23T10:01:44.915Z,48.45
2019-03-23T10:04:11.239Z,48.75
2019-03-23T10:06:37.120Z,47.70
2019-03-23T10:09:06.582Z,46.65
2019-03-23T10:11:32.746Z,48.68
2019-03-23T10:13:59.240Z,51.23
2019-03-23T10:16:25.392Z,48.13
2019-03-23T10:18:51.457Z,46.42
2019-03-23T10:21:17.510Z,48.00
2019-03-23T10:23:43.951Z,49.25
2019-03-23T10:26:10.118Z,49.08
2019-03-23T10:28:36.246Z,49.63
2019-03-23T10:31:02.214Z,49.60
2019-03-23T10:33:28.507Z,52.67
2019-03-23T10:35:54.679Z,47.38
2019-03-23T10:38:20.802Z,48.60
2019-03-23T10:40:48.242Z,48.25
2019-03-23T10:43:14.368Z,50.78
2019-03-23T10:45:44.455Z,48.15
2019-03-23T10:48:08.715Z,47.10
2019-03-23T10:50:35.176Z,48.35
2019-03-23T10:53:01.048Z,49.73
2019-03-23T10:55:27.135Z,48.87
2019-03-23T10:57:52.966Z,47.95
2019-03-23T11:00:19.113Z,51.23
2019-03-23T11:02:45.637Z,51.92
2019-03-23T11:05:12.192Z,49.83
2019-03-23T11:07:38.803Z,49.15
2019-03-23T11:10:07.628Z,50.17
2019-03-23T11:12:34.017Z,50.80
2019-03-23T11:15:00.305Z,50.08
2019-03-23T11:17:26.767Z,50.23
2019-03-23T11:19:52.690Z,48.23
2019-03-23T11:22:18.879Z,47.50
2019-03-23T11:24:44.767Z,48.08
2019-03-23T11:27:10.976Z,49.75
2019-03-23T11:29:36.864Z,48.60
2019-03-23T11:32:02.988Z,45.67
2019-03-23T11:34:29.202Z,46.73
2019-03-23T11:36:55.696Z,45.90
2019-03-23T11:39:21.944Z,46.35
2019-03-23T11:41:47.994Z,49.00
2019-03-23T11:44:14.155Z,45.88
2019-03-23T11:46:40.129Z,46.00
2019-03-23T11:49:06.211Z,47.25
2019-03-23T11:51:32.186Z,48.23
2019-03-23T11:53:58.387Z,46.02
2019-03-23T11:56:24.675Z,48.20
2019-03-23T11:58:50.983Z,49.70
2019-03-23T12:01:17.618Z,46.68
2019-03-23T12:03:45.681Z,46.77
2019-03-23T12:06:11.956Z,44.42
2019-03-23T12:08:37.689Z,42.88
2019-03-23T12:11:03.995Z,47.23
2019-03-23T12:13:30.454Z,49.20
2019-03-23T12:17:05.260Z,50.58
2019-03-23T12:19:33.977Z,48.60
2019-03-23T12:22:02.634Z,47.00
2019-03-23T12:24:31.277Z,48.63
2019-03-23T12:27:00.041Z,45.90
2019-03-23T12:29:28.797Z,44.03
2019-03-23T12:31:57.481Z,43.90
2019-03-23T12:34:26.200Z,46.40
2019-03-23T12:36:54.956Z,44.43
2019-03-23T12:39:23.412Z,45.60
2019-03-23T12:41:51.861Z,45.57
2019-03-23T12:44:20.456Z,43.47
2019-03-23T12:46:48.892Z,46.50
2019-03-23T12:49:17.389Z,44.43
2019-03-23T12:51:46.105Z,45.63
2019-03-23T12:54:14.835Z,41.83
2019-03-23T12:56:43.698Z,44.67
2019-03-23T12:59:12.396Z,44.43
2019-03-23T13:01:41.136Z,43.87
2019-03-23T13:04:09.551Z,45.37
2019-03-23T13:06:38.025Z,45.20
2019-03-23T13:09:07.682Z,46.73
2019-03-23T13:11:36.365Z,44.87
2019-03-23T13:14:05.078Z,44.20
2019-03-23T13:16:33.720Z,43.67
2019-03-23T13:19:02.579Z,40.67
2019-03-23T13:21:31.339Z,41.43
2019-03-23T13:24:00.206Z,42.80
2019-03-23T13:26:28.988Z,43.83
2019-03-23T13:28:57.659Z,44.00
2019-03-23T13:31:26.533Z,41.63
2019-03-23T13:33:55.380Z,40.03
2019-03-23T13:36:24.094Z,41.00
2019-03-23T13:38:52.939Z,43.83
2019-03-23T13:41:21.599Z,44.10
2019-03-23T13:43:50.377Z,42.00
2019-03-23T13:46:18.913Z,41.53
2019-03-23T13:48:47.553Z,41.43
2019-03-23T13:51:15.966Z,39.27
2019-03-23T13:53:44.743Z,39.60
2019-03-23T13:56:13.733Z,41.90
2019-03-23T13:58:42.219Z,43.47
2019-03-23T14:01:10.629Z,42.60
2019-03-23T14:03:39.395Z,44.57
2019-03-23T14:06:07.842Z,46.87
2019-03-23T14:08:36.292Z,41.90
2019-03-23T14:11:05.206Z,47.03
2019-03-23T14:13:34.014Z,49.57
2019-03-23T14:16:02.579Z,42.93
2019-03-23T14:18:31.016Z,45.30
2019-03-23T14:20:59.667Z,45.40
2019-03-23T14:23:28.226Z,45.63
2019-03-23T14:25:56.885Z,48.87
2019-03-23T14:28:25.322Z,48.00
2019-03-23T14:30:54.161Z,47.40
2019-03-23T14:33:23.595Z,41.53
2019-03-23T14:35:52.125Z,43.97
2019-03-23T14:38:20.526Z,43.97
2019-03-23T14:40:49.097Z,45.67
2019-03-23T14:43:17.544Z,44.33
2019-03-23T14:45:45.999Z,45.23
2019-03-23T14:48:14.661Z,44.93
2019-03-23T14:50:43.231Z,44.30
2019-03-23T14:53:11.800Z,44.67
2019-03-23T14:55:40.247Z,43.40
2019-03-23T14:58:08.998Z,42.17
2019-03-23T15:00:38.068Z,45.23
2019-03-23T15:03:06.956Z,42.67
2019-03-23T15:05:35.539Z,44.77
2019-03-23T15:08:04.020Z,41.37
2019-03-23T15:10:32.451Z,42.67
2019-03-23T15:13:01.156Z,45.00
2019-03-23T15:15:29.611Z,44.50
2019-03-23T15:17:58.086Z,44.93
2019-03-23T15:20:26.511Z,44.50
2019-03-23T15:22:54.936Z,44.27
2019-03-23T15:25:23.401Z,43.33
2019-03-23T15:27:51.804Z,45.37
2019-03-23T15:30:20.611Z,40.37
2019-03-23T15:32:49.137Z,46.63
2019-03-23T15:35:17.824Z,43.77
2019-03-23T15:37:46.277Z,44.93
2019-03-23T15:40:15.418Z,45.97
2019-03-23T15:42:44.093Z,46.97
2019-03-23T15:45:12.653Z,45.53
2019-03-23T15:47:41.386Z,44.67
2019-03-23T15:50:10.066Z,47.13
2019-03-23T15:52:38.875Z,46.53
2019-03-23T15:55:07.937Z,43.17
2019-03-23T15:57:36.949Z,46.33
2019-03-23T16:00:10.833Z,43.90
2019-03-23T16:02:39.246Z,44.30
2019-03-23T16:05:08.835Z,43.90
2019-03-23T16:07:37.508Z,46.03
2019-03-23T16:10:08.251Z,45.77
2019-03-23T16:12:37.787Z,47.87
2019-03-23T16:15:09.093Z,44.53
2019-03-23T16:17:37.531Z,46.43
2019-03-23T16:20:09.311Z,47.10
2019-03-23T16:22:37.758Z,47.73
2019-03-23T16:25:07.711Z,48.13
2019-03-23T16:27:36.172Z,50.50
2019-03-23T16:30:07.624Z,47.57
2019-03-23T16:32:36.763Z,52.20
2019-03-23T16:35:07.551Z,47.43
2019-03-23T16:37:36.046Z,48.90
2019-03-23T16:40:08.236Z,51.67
2019-03-23T16:42:44.691Z,49.30
2019-03-23T16:45:09.675Z,52.03
2019-03-23T16:47:38.823Z,49.93
2019-03-23T16:50:08.622Z,52.67
2019-03-23T16:52:38.555Z,38.93
2019-03-23T16:55:09.213Z,52.87
2019-03-23T16:57:37.686Z,51.77
2019-03-23T17:00:09.079Z,49.57
2019-03-23T17:02:37.788Z,48.20
2019-03-23T17:05:07.364Z,51.47
2019-03-23T17:07:35.985Z,52.03
2019-03-23T17:10:06.170Z,53.97
2019-03-23T17:12:35.034Z,51.93
2019-03-23T17:15:06.080Z,52.63
2019-03-23T17:17:34.702Z,53.87
2019-03-23T17:20:03.627Z,56.00
2019-03-23T17:22:32.211Z,52.27
2019-03-23T17:25:00.899Z,55.27
2019-03-23T17:27:29.610Z,54.20
2019-03-23T17:29:58.152Z,53.67
2019-03-23T17:32:26.887Z,55.60
2019-03-23T17:34:55.514Z,55.17
2019-03-23T17:37:24.225Z,55.47
2019-03-23T17:39:52.789Z,54.63
2019-03-23T17:42:21.573Z,55.57
2019-03-23T17:44:50.303Z,56.03
2019-03-23T17:47:18.929Z,54.20
2019-03-23T17:49:47.552Z,58.00
2019-03-23T17:52:16.157Z,57.23
2019-03-23T17:54:44.593Z,58.63
2019-03-23T17:57:13.036Z,57.53
2019-03-23T17:59:41.639Z,59.80
2019-03-23T18:02:10.599Z,60.33
2019-03-23T18:04:39.295Z,60.87
2019-03-23T18:07:07.961Z,56.10
2019-03-23T18:09:36.811Z,59.90
2019-03-23T18:12:05.445Z,61.17
2019-03-23T18:14:33.863Z,59.77
2019-03-23T18:17:02.627Z,61.63
2019-03-23T18:19:31.373Z,59.17
2019-03-23T18:22:00.185Z,57.43
2019-03-23T18:24:28.636Z,60.47
2019-03-23T18:26:57.223Z,60.93
2019-03-23T18:29:25.958Z,61.77
2019-03-23T18:31:54.398Z,60.50
2019-03-23T18:34:22.984Z,57.00
2019-03-23T18:36:52.202Z,61.10
2019-03-23T18:39:20.841Z,60.37
2019-03-23T18:41:49.605Z,62.77
2019-03-23T18:44:18.039Z,61.53
2019-03-23T18:46:46.718Z,59.77
2019-03-23T18:49:15.553Z,62.87
2019-03-23T18:51:44.375Z,61.00
2019-03-23T18:54:12.824Z,59.60
2019-03-23T18:56:41.469Z,62.63
2019-03-23T18:59:10.294Z,69.27
2019-03-23T19:01:38.715Z,62.13
2019-03-23T19:04:07.218Z,64.43
2019-03-23T19:06:35.983Z,62.57
2019-03-23T19:09:07.279Z,60.20
2019-03-23T19:11:36.062Z,61.80
2019-03-23T19:14:04.683Z,62.23
2019-03-23T19:16:33.395Z,64.43
2019-03-23T19:19:01.821Z,59.87
2019-03-23T19:21:30.301Z,64.53
2019-03-23T19:24:17.509Z,62.47
2019-03-23T19:26:45.977Z,62.40
2019-03-23T19:29:14.667Z,62.87
2019-03-23T19:31:43.095Z,60.57
2019-03-23T19:34:11.910Z,63.30
2019-03-23T19:36:40.336Z,64.00
2019-03-23T19:39:09.337Z,61.70
2019-03-23T19:41:38.038Z,64.50
2019-03-23T19:44:06.511Z,64.27
2019-03-23T19:46:34.931Z,64.40
2019-03-23T19:49:03.418Z,64.70
2019-03-23T19:51:31.861Z,64.63
2019-03-23T19:54:00.389Z,64.83
2019-03-23T19:56:29.167Z,63.93
2019-03-23T19:58:57.592Z,65.70
2019-03-23T20:01:26.381Z,67.20
2019-03-23T20:03:55.551Z,64.70
2019-03-23T20:06:24.123Z,62.73
2019-03-23T20:08:52.952Z,61.03
2019-03-23T20:11:21.402Z,65.27
2019-03-23T20:13:58.442Z,61.50
2019-03-23T20:16:20.029Z,61.03
2019-03-23T20:18:48.465Z,63.10
2019-03-23T20:21:17.008Z,63.23
2019-03-23T20:23:45.504Z,63.03
2019-03-23T20:26:14.151Z,64.03
2019-03-23T20:28:42.597Z,60.23
2019-03-23T20:31:11.123Z,61.83
2019-03-23T20:33:39.579Z,65.23
2019-03-23T20:36:08.010Z,61.30
2019-03-23T20:38:36.541Z,61.33
2019-03-23T20:41:05.066Z,61.73
2019-03-23T20:43:33.655Z,59.03
2019-03-23T20:46:02.414Z,58.83
2019-03-23T20:48:30.895Z,58.70
2019-03-23T20:50:59.403Z,60.33
2019-03-23T20:53:28.405Z,59.43
2019-03-23T20:55:56.895Z,59.87
2019-03-23T20:58:25.570Z,58.67
2019-03-23T21:00:54.060Z,58.93
2019-03-23T21:03:22.505Z,60.47
2019-03-23T21:05:50.942Z,58.80
2019-03-23T21:08:19.383Z,59.33
2019-03-23T21:10:47.834Z,55.13
2019-03-23T21:13:16.306Z,59.10
2019-03-23T21:15:44.724Z,56.27
2019-03-23T21:18:13.205Z,55.13
2019-03-23T21:20:41.866Z,56.87
2019-03-23T21:23:10.413Z,54.13
2019-03-23T21:25:39.069Z,55.57
2019-03-23T21:28:07.573Z,54.23
2019-03-23T21:30:36.125Z,53.33
2019-03-23T21:33:04.726Z,53.57
2019-03-23T21:35:33.210Z,53.73
2019-03-23T21:38:01.853Z,51.47
2019-03-23T21:40:31.151Z,51.63
2019-03-23T21:42:59.822Z,53.00
2019-03-23T21:45:28.318Z,53.53
2019-03-23T21:47:56.736Z,54.00
2019-03-23T21:50:25.213Z,51.07
2019-03-23T21:52:53.625Z,52.03
2019-03-23T21:55:22.048Z,51.73
2019-03-23T21:57:50.582Z,50.60
2019-03-23T22:00:33.188Z,49.90
2019-03-23T22:03:02.033Z,47.83
2019-03-23T22:05:30.489Z,46.77
2019-03-23T22:07:59.160Z,47.20
2019-03-23T22:10:27.746Z,45.87
2019-03-23T22:12:56.386Z,44.13
2019-03-23T22:15:25.024Z,44.00
2019-03-23T22:17:53.747Z,43.87
2019-03-23T22:20:22.438Z,41.40
2019-03-23T22:22:50.986Z,40.90
2019-03-23T22:25:19.606Z,39.47
2019-03-23T22:27:48.081Z,43.30
2019-03-23T22:30:17.467Z,39.63
2019-03-23T22:32:46.012Z,39.23
2019-03-23T22:35:14.674Z,36.20
2019-03-23T22:37:43.387Z,38.60
2019-03-23T22:40:13.554Z,36.80
2019-03-23T22:42:42.163Z,39.10
2019-03-23T22:45:11.599Z,37.53
2019-03-23T22:47:40.532Z,37.43
2019-03-23T22:50:09.865Z,35.17
2019-03-23T22:52:38.531Z,34.63
2019-03-23T22:55:07.894Z,36.87
2019-03-23T22:57:36.493Z,35.43
2019-03-23T23:00:16.149Z,35.57
2019-03-23T23:02:44.970Z,36.60
2019-03-23T23:05:13.610Z,34.07
2019-03-23T23:07:42.431Z,34.30
2019-03-23T23:10:11.456Z,34.20
2019-03-23T23:12:39.905Z,32.93
2019-03-23T23:15:08.604Z,34.23
2019-03-23T23:17:37.047Z,35.07
2019-03-23T23:20:07.679Z,35.00
2019-03-23T23:22:36.091Z,33.73
2019-03-23T23:25:07.354Z,33.53
2019-03-23T23:27:36.375Z,31.20
2019-03-23T23:30:07.521Z,32.30
2019-03-23T23:32:36.056Z,31.43
2019-03-23T23:35:09.010Z,31.30
2019-03-23T23:37:37.610Z,30.50
2019-03-23T23:40:08.146Z,32.83
2019-03-23T23:42:36.991Z,30.80
2019-03-23T23:45:15.397Z,30.37
2019-03-23T23:47:37.820Z,30.67
2019-03-23T23:50:08.171Z,32.30
2019-03-23T23:52:36.961Z,32.07
2019-03-23T23:55:07.261Z,29.57
2019-03-23T23:57:36.055Z,30.53
